Time;durP1;ratioP1;P1;durP2;ratioP2;P2;SDS_P1;SDS_P2;PMS_P1;PMS_P2;Temp;Humidity;BMP_temperature;BMP_pressure;BME280_temperature;BME280_humidity;BME280_pressure;Samples;Min_cycle;Max_cycle;Signal;HPM_P1;HPM_P2
2023/07/08 00:00:49;;;;;;;4.20;2.08;;;;;;;18.94;50.54;101309.34;4961042;28;20398;-80
2023/07/08 00:03:16;;;;;;;2.33;2.15;;;;;;;18.87;50.92;101309.56;4961235;28;20058;-78
2023/07/08 00:05:42;;;;;;;3.28;2.58;;;;;;;18.85;50.86;101305.19;4940972;28;20042;-78
2023/07/08 00:08:21;;;;;;;2.20;2.00;;;;;;;18.82;51.38;101307.06;4960336;28;20118;-78
2023/07/08 00:10:48;;;;;;;6.43;2.42;;;;;;;18.77;51.69;101309.00;4944189;28;20049;-79
2023/07/08 00:13:14;;;;;;;2.60;2.38;;;;;;;18.73;51.41;101302.91;4950511;29;20053;-81
2023/07/08 00:15:41;;;;;;;3.95;2.47;;;;;;;18.68;51.60;101294.25;4945069;28;20054;-78
2023/07/08 00:18:15;;;;;;;2.80;2.60;;;;;;;18.64;51.71;101293.50;4975975;28;20227;-80
2023/07/08 00:20:50;;;;;;;2.75;2.30;;;;;;;18.61;52.33;101288.28;4975515;28;20057;-78
2023/07/08 00:23:21;;;;;;;2.97;2.40;;;;;;;18.54;52.37;101294.72;4959708;28;20103;-78
2023/07/08 00:25:48;;;;;;;2.83;2.45;;;;;;;18.49;52.38;101301.94;4961179;28;20145;-81
2023/07/08 00:28:20;;;;;;;2.65;2.40;;;;;;;18.45;52.72;101297.66;4960190;28;20051;-78
2023/07/08 00:30:46;;;;;;;3.45;2.55;;;;;;;18.40;52.79;101289.84;4960719;28;20075;-78
2023/07/08 00:33:13;;;;;;;3.95;2.70;;;;;;;18.38;52.49;101290.78;4975947;28;20473;-78
2023/07/08 00:35:45;;;;;;;2.35;2.15;;;;;;;18.28;52.99;101288.44;4976175;28;20054;-79
2023/07/08 00:38:21;;;;;;;2.67;2.33;;;;;;;18.22;53.34;101291.25;4975831;28;20043;-79
2023/07/08 00:41:03;;;;;;;4.45;2.75;;;;;;;18.18;53.51;101289.63;4975904;28;20049;-79
2023/07/08 00:43:52;;;;;;;2.42;2.30;;;;;;;18.11;54.18;101273.06;4977167;28;20038;-78
2023/07/08 00:46:29;;;;;;;2.30;2.08;;;;;;;18.07;53.89;101278.47;4969446;28;20049;-78
2023/07/08 00:49:07;;;;;;;2.60;2.40;;;;;;;18.04;54.23;101286.53;4976888;28;20465;-79
2023/07/08 00:51:39;;;;;;;3.25;2.15;;;;;;;17.97;54.02;101286.72;4976967;28;20048;-78
2023/07/08 00:54:13;;;;;;;5.00;2.33;;;;;;;17.96;53.84;101279.66;4959496;28;20043;-78
2023/07/08 00:56:50;;;;;;;4.28;3.30;;;;;;;17.96;54.32;101292.91;4972947;28;20038;-79
2023/07/08 00:59:32;;;;;;;6.75;3.30;;;;;;;17.95;54.74;101290.31;4979449;28;20039;-80
2023/07/08 01:02:03;;;;;;;3.00;2.78;;;;;;;17.93;54.33;101285.06;4980599;28;20058;-79
2023/07/08 01:04:36;;;;;;;5.65;2.92;;;;;;;17.88;54.57;101279.00;4970261;28;20051;-77
2023/07/08 01:07:03;;;;;;;3.60;3.20;;;;;;;17.87;54.38;101285.22;4976538;28;20035;-78
2023/07/08 01:09:38;;;;;;;4.60;3.15;;;;;;;17.83;54.95;101270.34;4960161;28;20043;-78
2023/07/08 01:12:10;;;;;;;4.82;3.60;;;;;;;17.81;55.23;101272.19;4941969;29;20041;-77
2023/07/08 01:14:39;;;;;;;5.25;3.03;;;;;;;17.77;56.37;101267.84;4956061;29;20043;-77
2023/07/08 01:17:06;;;;;;;2.90;2.70;;;;;;;17.73;56.04;101269.75;4940553;29;20050;-78
2023/07/08 01:19:38;;;;;;;3.13;2.50;;;;;;;17.66;56.34;101265.53;4957170;28;20047;-77
2023/07/08 01:22:06;;;;;;;4.38;3.25;;;;;;;17.61;56.71;101264.78;4949054;28;20039;-78
2023/07/08 01:24:36;;;;;;;5.75;3.03;;;;;;;17.58;56.86;101259.59;4958564;28;20047;-78
2023/07/08 01:27:07;;;;;;;4.18;2.72;;;;;;;17.53;57.00;101260.59;4974514;28;20066;-78
2023/07/08 01:29:34;;;;;;;5.50;4.35;;;;;;;17.48;58.09;101257.22;4942105;28;20599;-78
2023/07/08 01:32:02;;;;;;;4.32;3.20;;;;;;;17.47;57.56;101252.81;4974249;28;20042;-78
2023/07/08 01:34:30;;;;;;;6.57;3.85;;;;;;;17.41;58.22;101255.63;4958181;28;20098;-78
2023/07/08 01:36:58;;;;;;;6.22;3.80;;;;;;;17.36;58.31;101254.88;4955258;28;20489;-78
2023/07/08 01:39:29;;;;;;;3.83;3.30;;;;;;;17.34;58.78;101254.09;4976300;28;20039;-78
2023/07/08 01:41:58;;;;;;;3.60;2.90;;;;;;;17.28;59.81;101248.94;4957759;28;20043;-79
2023/07/08 01:44:34;;;;;;;3.35;2.80;;;;;;;17.22;60.68;101249.09;4973733;28;20106;-79
2023/07/08 01:47:25;;;;;;;3.95;2.90;;;;;;;17.16;60.25;101251.00;4957488;28;20050;-78
2023/07/08 01:49:51;;;;;;;4.55;2.72;;;;;;;17.09;60.32;101251.22;4962769;28;20039;-78
2023/07/08 01:52:18;;;;;;;5.30;3.45;;;;;;;17.03;60.86;101247.81;4943164;28;20046;-78
2023/07/08 01:54:45;;;;;;;5.35;3.08;;;;;;;17.00;60.61;101247.91;4931115;28;20038;-79
2023/07/08 01:57:11;;;;;;;3.65;2.90;;;;;;;16.96;61.61;101243.63;4957615;28;20109;-85
2023/07/08 01:59:38;;;;;;;4.25;3.10;;;;;;;16.93;62.31;101241.03;4978848;28;20066;-78
2023/07/08 02:02:04;;;;;;;2.90;2.60;;;;;;;16.89;62.14;101243.78;4973623;28;20046;-80
2023/07/08 02:04:31;;;;;;;3.83;3.13;;;;;;;16.87;61.96;101244.69;4954583;28;20054;-79
2023/07/08 02:07:01;;;;;;;4.43;2.97;;;;;;;16.83;62.48;101237.75;4937388;28;20690;-79
2023/07/08 02:09:28;;;;;;;3.28;3.08;;;;;;;16.80;62.79;101234.31;4965685;28;20046;-79
2023/07/08 02:11:54;;;;;;;4.47;2.72;;;;;;;16.80;63.04;101226.38;4973228;28;20046;-83
2023/07/08 02:14:21;;;;;;;3.05;2.85;;;;;;;16.77;63.58;101223.81;4972975;28;20042;-79
2023/07/08 02:16:48;;;;;;;4.40;3.42;;;;;;;16.74;64.79;101223.88;4973608;28;20031;-77
2023/07/08 02:19:14;;;;;;;3.10;2.88;;;;;;;16.75;64.34;101222.97;4973547;28;20035;-80
2023/07/08 02:21:41;;;;;;;4.72;3.58;;;;;;;16.73;64.67;101224.81;4939853;29;20043;-79
2023/07/08 02:24:08;;;;;;;3.88;3.08;;;;;;;16.72;64.58;101223.91;4938284;29;20099;-77
2023/07/08 02:26:35;;;;;;;3.95;2.92;;;;;;;16.65;65.15;101225.84;4968438;28;20072;-78
2023/07/08 02:29:02;;;;;;;3.90;3.53;;;;;;;16.63;65.50;101225.00;4976571;28;20066;-78
2023/07/08 02:31:29;;;;;;;6.57;3.25;;;;;;;16.59;65.72;101226.00;4956015;28;20058;-79
2023/07/08 02:33:56;;;;;;;6.25;3.25;;;;;;;16.56;66.09;101230.50;4942038;29;20125;-84
2023/07/08 02:36:23;;;;;;;3.53;2.80;;;;;;;16.51;66.60;101226.19;4954534;28;20042;-78
2023/07/08 02:38:50;;;;;;;6.53;2.67;;;;;;;16.47;66.70;101224.53;4956930;28;20038;-78
2023/07/08 02:41:17;;;;;;;3.75;2.88;;;;;;;16.43;67.55;101225.50;4973490;28;20090;-78
2023/07/08 02:43:43;;;;;;;7.88;2.63;;;;;;;16.39;67.18;101223.84;4956766;28;20472;-78
2023/07/08 02:46:10;;;;;;;3.25;3.05;;;;;;;16.37;67.91;101225.66;4973062;28;20300;-78
2023/07/08 02:48:36;;;;;;;4.40;3.22;;;;;;;16.34;69.11;101225.75;4974046;28;20054;-78
2023/07/08 02:51:05;;;;;;;3.40;3.10;;;;;;;16.29;68.94;101223.19;4957172;28;20046;-79
2023/07/08 02:53:32;;;;;;;3.50;3.17;;;;;;;16.25;69.09;101226.81;4964495;28;20038;-79
2023/07/08 02:55:58;;;;;;;5.53;3.13;;;;;;;16.24;69.64;101224.22;4974114;28;20082;-79
2023/07/08 02:58:25;;;;;;;3.00;2.65;;;;;;;16.22;69.21;101224.25;4969526;28;20035;-80
2023/07/08 03:00:58;;;;;;;2.90;2.60;;;;;;;16.17;69.75;101221.72;4973096;28;20053;-85
2023/07/08 03:03:25;;;;;;;4.78;3.60;;;;;;;16.12;69.58;101226.22;4949201;28;20055;-79
2023/07/08 03:06:02;;;;;;;2.95;2.78;;;;;;;16.07;70.15;101219.31;4972512;28;20094;-79
2023/07/08 03:08:29;;;;;;;3.22;2.92;;;;;;;16.04;70.78;101223.75;4941722;28;20087;-78
2023/07/08 03:11:02;;;;;;;4.60;2.92;;;;;;;16.03;70.95;101223.81;4957166;28;20042;-78
2023/07/08 03:13:30;;;;;;;3.50;3.22;;;;;;;16.00;70.75;101214.19;4947768;28;20035;-78
2023/07/08 03:15:58;;;;;;;3.53;3.25;;;;;;;15.99;70.97;101216.84;4973570;28;20043;-79
2023/07/08 03:18:26;;;;;;;3.15;2.33;;;;;;;15.95;71.06;101221.34;4965350;28;20047;-79
2023/07/08 03:20:55;;;;;;;3.00;2.80;;;;;;;15.94;71.91;101213.44;4975783;28;20052;-84
2023/07/08 03:23:23;;;;;;;4.78;4.05;;;;;;;15.92;71.97;101213.50;4963680;29;20518;-77
2023/07/08 03:25:53;;;;;;;5.63;3.42;;;;;;;15.92;72.00;101210.84;4941416;28;20397;-81
2023/07/08 03:28:20;;;;;;;6.53;3.45;;;;;;;15.94;72.70;101213.44;4957749;28;20043;-78
2023/07/08 03:30:53;;;;;;;4.57;3.10;;;;;;;15.92;72.43;101212.59;4962704;28;20050;-78
2023/07/08 03:33:19;;;;;;;5.10;3.08;;;;;;;15.90;72.41;101219.72;4960302;28;20050;-82
2023/07/08 03:35:46;;;;;;;3.55;3.25;;;;;;;15.88;72.36;101227.66;4976548;28;20094;-78
2023/07/08 03:38:12;;;;;;;3.40;3.20;;;;;;;15.88;72.43;101222.38;4967093;28;20458;-80
2023/07/08 03:40:39;;;;;;;3.10;2.90;;;;;;;15.87;72.90;101225.94;4959801;28;20042;-79
2023/07/08 03:43:05;;;;;;;4.60;3.67;;;;;;;15.88;72.83;101223.25;4967484;28;20050;-80
2023/07/08 03:45:32;;;;;;;3.13;2.75;;;;;;;15.92;72.96;101220.53;4970502;28;20102;-79
2023/07/08 03:47:58;;;;;;;3.33;3.03;;;;;;;15.89;72.82;101218.81;4954433;28;20094;-78
2023/07/08 03:50:26;;;;;;;6.03;3.47;;;;;;;15.85;73.48;101230.34;4957757;28;20051;-80
2023/07/08 03:52:55;;;;;;;6.10;3.80;;;;;;;15.80;73.83;101217.25;4962152;28;20041;-81
2023/07/08 03:55:22;;;;;;;3.75;3.40;;;;;;;15.82;73.63;101226.00;4954100;28;20043;-81
2023/07/08 03:57:49;;;;;;;14.13;4.07;;;;;;;15.84;74.33;101224.22;4961218;28;20110;-81
2023/07/08 04:00:16;;;;;;;4.35;3.80;;;;;;;15.90;73.77;101225.00;4955378;28;20430;-80
2023/07/08 04:02:44;;;;;;;4.40;4.00;;;;;;;15.93;73.55;101231.06;4955969;28;20047;-83
2023/07/08 04:05:19;;;;;;;3.75;3.50;;;;;;;15.95;74.58;101233.69;4959354;28;20042;-85
2023/07/08 04:07:46;;;;;;;5.32;4.15;;;;;;;15.96;74.47;101230.13;4941526;28;20046;-79
2023/07/08 04:10:14;;;;;;;7.78;3.72;;;;;;;15.98;74.50;101231.84;4978814;28;20034;-79
2023/07/08 04:12:41;;;;;;;3.85;3.47;;;;;;;15.98;74.06;101230.97;4958856;28;20086;-83
2023/07/08 04:15:12;;;;;;;5.57;4.20;;;;;;;15.98;74.57;101237.13;4974144;28;20617;-81
2023/07/08 04:17:45;;;;;;;6.18;3.72;;;;;;;16.01;74.37;101228.28;4943944;28;20467;-80
2023/07/08 04:20:14;;;;;;;7.25;3.88;;;;;;;16.09;74.13;101226.31;4975627;28;20141;-79
2023/07/08 04:22:41;;;;;;;6.65;3.92;;;;;;;16.18;73.72;101233.16;4970839;28;20526;-78
2023/07/08 04:25:08;;;;;;;4.25;3.58;;;;;;;16.47;72.72;101229.81;4947496;28;20042;-81
2023/07/08 04:27:34;;;;;;;4.78;3.97;;;;;;;16.64;71.89;101229.41;4959158;28;20041;-79
2023/07/08 04:30:02;;;;;;;8.77;4.07;;;;;;;16.66;71.67;101235.53;4943078;28;20121;-78
2023/07/08 04:32:29;;;;;;;4.90;3.65;;;;;;;16.64;72.38;101236.47;4943618;28;20047;-80
2023/07/08 04:34:55;;;;;;;4.60;4.20;;;;;;;16.59;72.18;101235.72;4959214;28;20046;-80
2023/07/08 04:37:22;;;;;;;4.47;4.07;;;;;;;16.61;72.01;101237.41;4976810;28;20055;-78
2023/07/08 04:39:48;;;;;;;6.45;4.32;;;;;;;16.63;71.96;101234.72;4959486;28;20039;-79
2023/07/08 04:42:17;;;;;;;3.67;3.38;;;;;;;16.63;71.82;101230.28;4967333;28;20042;-79
2023/07/08 04:44:44;;;;;;;3.45;3.22;;;;;;;16.65;71.91;101236.44;4974346;28;20547;-79
2023/07/08 04:47:13;;;;;;;7.47;3.50;;;;;;;16.67;71.91;101236.38;4957361;28;20442;-78
2023/07/08 04:49:43;;;;;;;7.00;4.25;;;;;;;16.65;72.06;101235.56;4955926;29;20071;-78
2023/07/08 04:52:10;;;;;;;4.05;3.58;;;;;;;16.62;72.21;101233.00;4953994;28;20042;-79
2023/07/08 04:54:36;;;;;;;4.20;3.70;;;;;;;16.63;72.31;101235.59;4958729;28;20043;-78
2023/07/08 04:57:03;;;;;;;3.97;3.63;;;;;;;16.67;72.59;101228.47;4959085;28;20053;-78
2023/07/08 04:59:34;;;;;;;4.55;4.15;;;;;;;16.77;71.71;101234.41;4957902;28;20040;-78
2023/07/08 05:02:00;;;;;;;4.07;3.35;;;;;;;16.84;71.47;101231.56;4959245;28;20042;-79
2023/07/08 05:04:27;;;;;;;5.50;4.00;;;;;;;16.86;71.61;101236.78;4973907;28;20087;-78
2023/07/08 05:06:53;;;;;;;5.63;3.30;;;;;;;16.89;71.08;101228.78;4974859;28;20030;-78
2023/07/08 05:09:22;;;;;;;4.03;3.63;;;;;;;16.99;71.00;101237.38;4965404;28;20027;-78
2023/07/08 05:11:48;;;;;;;4.45;3.92;;;;;;;17.10;70.54;101242.38;4973810;28;20047;-79
2023/07/08 05:14:15;;;;;;;7.97;4.13;;;;;;;17.18;70.08;101240.38;4948271;28;20046;-78
2023/07/08 05:16:41;;;;;;;7.35;4.10;;;;;;;17.21;69.56;101237.66;4958057;28;20047;-78
2023/07/08 05:19:08;;;;;;;4.03;3.72;;;;;;;17.20;69.48;101247.38;4975375;28;20167;-78
2023/07/08 05:21:34;;;;;;;5.22;4.20;;;;;;;17.22;69.83;101251.75;4958092;28;20050;-79
2023/07/08 05:24:05;;;;;;;6.20;4.15;;;;;;;17.28;69.45;101241.00;4966476;28;20043;-79
2023/07/08 05:26:33;;;;;;;5.50;5.00;;;;;;;17.28;69.07;101236.56;4964570;28;20042;-79
2023/07/08 05:28:59;;;;;;;6.32;5.22;;;;;;;17.28;69.31;101246.31;4953986;28;20315;-81
2023/07/08 05:31:27;;;;;;;6.20;4.35;;;;;;;17.31;69.32;101236.50;4962681;28;20129;-78
2023/07/08 05:33:54;;;;;;;5.47;4.80;;;;;;;17.31;69.24;101243.56;4973448;28;20035;-79
2023/07/08 05:36:20;;;;;;;4.28;3.88;;;;;;;17.40;68.96;101242.44;4975390;28;20043;-78
2023/07/08 05:38:47;;;;;;;6.22;4.85;;;;;;;17.42;68.56;101244.16;4989318;28;20156;-78
2023/07/08 05:41:13;;;;;;;7.00;4.75;;;;;;;17.41;68.30;101239.75;4958345;28;20049;-78
2023/07/08 05:43:40;;;;;;;4.82;4.43;;;;;;;17.44;67.92;101239.69;4974001;28;20042;-79
2023/07/08 05:46:08;;;;;;;4.88;4.47;;;;;;;17.45;67.71;101238.75;4973827;28;20046;-78
2023/07/08 05:48:35;;;;;;;5.15;4.22;;;;;;;17.48;67.81;101236.03;4974868;28;20042;-79
2023/07/08 05:51:01;;;;;;;4.95;4.47;;;;;;;17.57;67.14;101239.31;4957608;28;20041;-79
2023/07/08 05:53:27;;;;;;;7.70;4.65;;;;;;;17.63;67.15;101240.00;4967554;28;20054;-80
2023/07/08 05:55:54;;;;;;;5.15;4.65;;;;;;;17.72;66.38;101235.34;4973171;28;20497;-82
2023/07/08 05:58:21;;;;;;;6.03;4.30;;;;;;;17.78;66.18;101235.16;4941014;28;20133;-79
2023/07/08 06:00:48;;;;;;;6.50;4.40;;;;;;;17.86;65.78;101238.47;4973497;28;20035;-81
2023/07/08 06:03:15;;;;;;;8.10;4.53;;;;;;;17.95;65.63;101230.28;4973348;28;20047;-79
2023/07/08 06:05:43;;;;;;;5.10;4.38;;;;;;;18.02;64.82;101231.81;4956959;28;20109;-80
2023/07/08 06:08:09;;;;;;;6.80;4.25;;;;;;;18.09;64.39;101232.47;4957622;28;20097;-80
2023/07/08 06:10:43;;;;;;;6.38;4.07;;;;;;;18.14;64.48;101232.34;4959127;28;20055;-79
2023/07/08 06:13:10;;;;;;;7.82;4.20;;;;;;;18.26;64.25;101236.41;4953270;28;20474;-81
2023/07/08 06:15:36;;;;;;;5.10;4.60;;;;;;;18.35;63.81;101225.50;4958907;28;20051;-79
2023/07/08 06:18:03;;;;;;;6.63;3.97;;;;;;;18.44;63.08;101221.69;4941286;28;20433;-79
2023/07/08 06:20:30;;;;;;;4.78;4.30;;;;;;;18.47;62.67;101224.22;4956396;28;20102;-84
2023/07/08 06:22:57;;;;;;;4.43;3.72;;;;;;;18.50;62.17;101222.34;4956620;28;20047;-79
2023/07/08 06:25:23;;;;;;;4.80;4.28;;;;;;;18.54;61.93;101232.84;4985874;28;20090;-81
2023/07/08 06:27:50;;;;;;;4.00;3.70;;;;;;;18.57;61.80;101232.75;4935919;28;20042;-79
2023/07/08 06:30:16;;;;;;;8.63;4.70;;;;;;;18.65;61.88;101233.38;4940202;28;20050;-80
2023/07/08 06:32:42;;;;;;;4.95;4.55;;;;;;;18.71;60.99;101225.22;4950728;28;20050;-79
2023/07/08 06:35:09;;;;;;;4.35;3.85;;;;;;;18.78;60.72;101224.06;4972299;28;20035;-78
2023/07/08 06:37:36;;;;;;;6.63;3.58;;;;;;;18.89;60.70;101225.47;4948961;28;20054;-79
2023/07/08 06:40:03;;;;;;;5.45;4.43;;;;;;;18.98;60.45;101230.50;4968895;28;20039;-80
2023/07/08 06:42:29;;;;;;;5.03;3.75;;;;;;;19.02;60.11;101232.16;4952924;28;20441;-78
2023/07/08 06:44:56;;;;;;;8.98;4.85;;;;;;;19.04;59.88;101234.75;4984469;28;20047;-82
2023/07/08 06:47:23;;;;;;;4.55;4.18;;;;;;;19.06;60.24;101233.78;4963749;28;20058;-87
2023/07/08 06:49:49;;;;;;;6.22;4.30;;;;;;;19.17;59.89;101234.22;4955014;28;20094;-78
2023/07/08 06:52:16;;;;;;;11.10;5.00;;;;;;;19.28;59.80;101233.88;4956315;28;20043;-82
2023/07/08 06:54:43;;;;;;;7.50;4.90;;;;;;;19.34;59.50;101232.78;4971800;28;20734;-79
2023/07/08 06:57:09;;;;;;;5.43;4.47;;;;;;;19.42;59.38;101232.50;4956162;28;20105;-79
2023/07/08 06:59:36;;;;;;;7.18;4.65;;;;;;;19.55;59.13;101235.56;4936818;29;20043;-80
2023/07/08 07:02:02;;;;;;;5.85;4.70;;;;;;;19.69;58.96;101238.56;4952734;29;20102;-84
2023/07/08 07:04:30;;;;;;;6.25;4.28;;;;;;;19.84;58.26;101231.81;4957684;28;20041;-82
2023/07/08 07:06:57;;;;;;;6.22;5.18;;;;;;;19.93;58.30;101233.25;4957787;28;20042;-85
2023/07/08 07:09:23;;;;;;;5.85;4.07;;;;;;;20.00;58.33;101232.97;4959039;28;20489;-79
2023/07/08 07:11:50;;;;;;;4.30;3.90;;;;;;;20.13;58.29;101224.53;4976052;28;20038;-79
2023/07/08 07:14:16;;;;;;;6.00;4.65;;;;;;;20.24;57.30;101226.75;4976428;28;20039;-80
2023/07/08 07:16:43;;;;;;;6.05;4.47;;;;;;;20.33;57.34;101229.03;4973787;28;20145;-80
2023/07/08 07:19:09;;;;;;;6.75;3.83;;;;;;;20.49;57.14;101224.81;4959940;28;20034;-79
2023/07/08 07:21:36;;;;;;;5.60;4.40;;;;;;;20.67;56.41;101227.63;4977223;28;20046;-80
2023/07/08 07:24:02;;;;;;;6.57;4.45;;;;;;;20.82;56.14;101229.66;4959978;28;20043;-78
2023/07/08 07:26:29;;;;;;;4.38;3.97;;;;;;;21.08;54.87;101224.13;4972687;28;20042;-82
2023/07/08 07:28:55;;;;;;;7.88;3.97;;;;;;;21.48;53.68;101233.88;4989115;28;20053;-79
2023/07/08 07:31:21;;;;;;;5.00;3.95;;;;;;;22.03;51.97;101224.28;4983678;28;20046;-79
2023/07/08 07:33:48;;;;;;;4.80;4.10;;;;;;;22.59;50.90;101217.13;4974988;28;20041;-79
2023/07/08 07:36:14;;;;;;;4.88;4.32;;;;;;;23.16;48.41;101226.69;4957738;28;20043;-85
2023/07/08 07:38:41;;;;;;;4.47;3.78;;;;;;;23.65;48.21;101222.31;4974496;28;20066;-80
2023/07/08 07:41:10;;;;;;;5.10;4.00;;;;;;;24.14;45.72;101226.75;4958716;28;20058;-82
2023/07/08 07:43:37;;;;;;;6.47;3.88;;;;;;;24.71;45.59;101218.13;4960329;28;20081;-78
2023/07/08 07:46:05;;;;;;;6.47;4.32;;;;;;;25.18;44.05;101224.22;4959690;28;20065;-80
2023/07/08 07:48:32;;;;;;;4.40;3.53;;;;;;;25.62;43.99;101225.09;4959672;28;20042;-78
2023/07/08 07:50:58;;;;;;;5.10;3.30;;;;;;;26.21;41.81;101217.72;4961690;28;20030;-79
2023/07/08 07:53:25;;;;;;;4.57;3.47;;;;;;;26.66;41.53;101227.28;4943893;28;20039;-81
2023/07/08 07:56:03;;;;;;;7.45;3.78;;;;;;;27.11;39.49;101217.06;4959922;28;20050;-81
2023/07/08 07:58:30;;;;;;;7.35;3.72;;;;;;;27.64;40.29;101219.63;4995714;28;20046;-80
2023/07/08 08:00:57;;;;;;;3.97;3.22;;;;;;;28.20;37.86;101218.28;4972807;28;20039;-80
2023/07/08 08:03:24;;;;;;;4.03;3.65;;;;;;;28.47;37.78;101223.41;4976021;28;20051;-80
2023/07/08 08:05:51;;;;;;;3.90;3.42;;;;;;;28.90;37.24;101218.44;4975634;28;20042;-79
2023/07/08 08:08:17;;;;;;;7.40;3.67;;;;;;;29.08;35.80;101216.97;4972506;28;20039;-79
2023/07/08 08:10:44;;;;;;;3.50;3.20;;;;;;;29.00;35.87;101211.34;4941090;29;20047;-78
2023/07/08 08:13:11;;;;;;;6.57;3.65;;;;;;;29.15;36.18;101214.66;4940523;28;20039;-79
2023/07/08 08:15:39;;;;;;;4.45;3.38;;;;;;;29.26;35.19;101217.38;4987206;28;20050;-79
2023/07/08 08:18:05;;;;;;;4.13;3.40;;;;;;;29.12;35.18;101215.75;4978800;28;20473;-80
2023/07/08 08:20:32;;;;;;;3.08;2.88;;;;;;;29.24;35.56;101223.88;4957144;28;20055;-79
2023/07/08 08:22:58;;;;;;;3.40;3.10;;;;;;;29.64;34.86;101221.53;4962404;28;20046;-82
2023/07/08 08:25:25;;;;;;;3.17;2.97;;;;;;;30.15;33.89;101219.25;4960188;28;20122;-80
2023/07/08 08:27:52;;;;;;;4.28;3.17;;;;;;;30.70;33.71;101219.16;4958561;28;20041;-82
2023/07/08 08:30:19;;;;;;;6.88;3.53;;;;;;;31.11;32.29;101225.56;4959279;28;20035;-79
2023/07/08 08:32:45;;;;;;;3.80;3.47;;;;;;;31.28;32.06;101229.50;4958377;28;20042;-79
2023/07/08 08:35:12;;;;;;;5.03;4.65;;;;;;;31.69;31.11;101223.28;4959141;28;20081;-80
2023/07/08 08:37:38;;;;;;;3.40;3.10;;;;;;;32.00;30.52;101232.16;4942857;28;20501;-81
2023/07/08 08:40:06;;;;;;;5.93;3.30;;;;;;;31.76;30.74;101225.28;4953620;29;20118;-79
2023/07/08 08:42:57;;;;;;;3.08;2.78;;;;;;;31.83;31.06;101221.03;4942483;28;20069;-82
2023/07/08 08:45:26;;;;;;;3.90;2.95;;;;;;;32.14;30.63;101226.34;4955534;29;20051;-79
2023/07/08 08:48:00;;;;;;;3.88;3.00;;;;;;;32.66;30.13;101219.81;4942844;28;20043;-78
2023/07/08 08:50:49;;;;;;;3.30;3.00;;;;;;;33.20;29.16;101227.41;4950825;28;20047;-80
2023/07/08 08:53:19;;;;;;;4.82;3.03;;;;;;;33.87;28.35;101219.13;4984529;28;20039;-79
2023/07/08 08:55:56;;;;;;;3.25;2.95;;;;;;;34.24;28.65;101219.00;4975224;28;20034;-79
2023/07/08 08:58:35;;;;;;;4.47;3.35;;;;;;;34.84;27.13;101225.66;4958987;28;20125;-81
2023/07/08 09:01:10;;;;;;;2.95;2.67;;;;;;;34.26;27.57;101217.00;4959161;28;20053;-79
2023/07/08 09:03:52;;;;;;;3.17;2.85;;;;;;;34.27;27.37;101224.13;4959841;28;20047;-80
2023/07/08 09:06:29;;;;;;;3.92;2.85;;;;;;;34.60;27.74;101218.13;4958597;28;20047;-80
2023/07/08 09:08:58;;;;;;;4.50;3.20;;;;;;;35.17;27.09;101220.41;4965364;28;20635;-80
2023/07/08 09:11:46;;;;;;;3.05;2.78;;;;;;;35.71;26.32;101211.13;4978627;28;20093;-80
2023/07/08 09:14:34;;;;;;;5.13;3.15;;;;;;;35.57;25.71;101212.63;4948216;28;20058;-80
2023/07/08 09:17:34;;;;;;;3.50;2.50;;;;;;;35.81;25.24;101208.28;4955051;28;20047;-80
2023/07/08 09:20:20;;;;;;;8.07;3.50;;;;;;;36.14;24.88;101209.22;4959142;28;20046;-80
2023/07/08 09:23:02;;;;;;;2.70;2.50;;;;;;;36.52;24.93;101211.44;4961595;28;20794;-81
2023/07/08 09:25:44;;;;;;;2.30;2.20;;;;;;;37.07;24.37;101209.88;4974867;28;20035;-85
2023/07/08 09:28:14;;;;;;;3.35;3.05;;;;;;;37.50;23.59;101207.66;4967374;28;20038;-81
2023/07/08 09:30:40;;;;;;;2.95;2.17;;;;;;;37.71;23.76;101206.19;4937908;28;20053;-79
2023/07/08 09:33:11;;;;;;;2.78;2.67;;;;;;;37.71;23.47;101198.84;4953402;28;20713;-84
2023/07/08 09:35:49;;;;;;;2.70;2.45;;;;;;;37.90;23.64;101203.03;4974175;28;20064;-82
2023/07/08 09:38:19;;;;;;;3.05;2.80;;;;;;;38.19;23.14;101204.19;4955340;28;20042;-81
2023/07/08 09:40:56;;;;;;;2.95;2.70;;;;;;;37.68;23.87;101210.13;4957693;28;20034;-86
2023/07/08 09:43:30;;;;;;;4.15;3.08;;;;;;;37.84;23.41;101200.19;4958669;28;20042;-80
2023/07/08 09:46:00;;;;;;;2.83;2.58;;;;;;;37.81;23.27;101198.66;4972965;28;20142;-79
2023/07/08 09:48:36;;;;;;;2.50;2.40;;;;;;;37.53;24.13;101198.28;4973756;28;20051;-81
2023/07/08 09:51:05;;;;;;;3.97;2.30;;;;;;;38.26;23.00;101198.03;4957161;28;20062;-80
2023/07/08 09:53:31;;;;;;;2.40;2.25;;;;;;;38.91;22.71;101202.03;4973374;28;20043;-80
2023/07/08 09:56:00;;;;;;;3.08;2.80;;;;;;;39.83;21.91;101205.34;4960715;28;20042;-82
2023/07/08 09:58:33;;;;;;;2.83;2.67;;;;;;;39.98;21.53;101202.56;4949611;28;20429;-81
2023/07/08 10:01:11;;;;;;;2.60;2.40;;;;;;;39.76;21.42;101201.69;4939701;28;20420;-80
2023/07/08 10:03:38;;;;;;;4.82;2.72;;;;;;;39.50;21.79;101205.78;4941876;28;20035;-80
2023/07/08 10:06:17;;;;;;;2.45;2.20;;;;;;;39.99;21.27;101204.25;4964296;28;20039;-81
2023/07/08 10:08:45;;;;;;;3.42;2.97;;;;;;;40.40;21.23;101209.06;4951322;28;20049;-83
2023/07/08 10:11:30;;;;;;;2.92;2.72;;;;;;;40.52;20.33;101203.91;4956594;28;20121;-80
2023/07/08 10:14:38;;;;;;;3.03;2.83;;;;;;;40.47;20.62;101201.75;4973274;28;20034;-80
2023/07/08 10:17:07;;;;;;;3.08;2.72;;;;;;;40.40;20.66;101205.50;4937648;29;20051;-81
2023/07/08 10:19:34;;;;;;;3.05;2.75;;;;;;;39.53;21.18;101199.91;4954343;28;20057;-81
2023/07/08 10:22:22;;;;;;;3.00;2.78;;;;;;;39.30;21.33;101206.38;4956855;28;20049;-81
2023/07/08 10:25:05;;;;;;;3.05;2.85;;;;;;;39.91;20.79;101194.28;4940858;28;20041;-80
2023/07/08 10:28:08;;;;;;;3.53;3.22;;;;;;;40.26;20.17;101193.56;4972199;28;20047;-80
2023/07/08 10:30:56;;;;;;;3.17;2.90;;;;;;;40.93;19.50;101194.91;4930653;28;20042;-81
2023/07/08 10:34:05;;;;;;;4.05;3.75;;;;;;;40.38;19.44;101202.09;4972486;28;20070;-81
2023/07/08 10:36:52;;;;;;;3.10;2.90;;;;;;;40.31;20.38;101196.56;4950582;28;20054;-81
2023/07/08 10:39:37;;;;;;;2.85;2.63;;;;;;;40.38;19.96;101196.59;4955610;28;20497;-80
2023/07/08 10:42:42;;;;;;;4.68;3.15;;;;;;;40.58;19.74;101188.56;4983925;28;20042;-80
2023/07/08 10:45:18;;;;;;;4.75;4.45;;;;;;;41.02;20.13;101187.41;4952591;28;20057;-80
2023/07/08 10:48:11;;;;;;;3.38;3.15;;;;;;;42.46;18.56;101192.88;4975062;28;20081;-80
2023/07/08 10:51:05;;;;;;;2.83;2.72;;;;;;;42.75;18.16;101197.13;4955511;28;20041;-84
2023/07/08 10:54:07;;;;;;;4.03;3.55;;;;;;;43.06;17.67;101183.69;4925099;28;20055;-84
2023/07/08 10:56:44;;;;;;;4.40;3.25;;;;;;;42.69;18.24;101184.19;4947072;28;20043;-80
2023/07/08 10:59:50;;;;;;;2.63;2.50;;;;;;;43.29;17.95;101183.19;4969816;28;20043;-80
2023/07/08 11:02:37;;;;;;;4.50;3.95;;;;;;;42.50;17.85;101187.81;4925672;28;20054;-84
2023/07/08 11:05:45;;;;;;;3.30;3.10;;;;;;;43.16;17.44;101184.09;4961041;28;20039;-82
2023/07/08 11:08:25;;;;;;;4.57;3.13;;;;;;;43.98;17.50;101179.84;4954509;28;20047;-80
2023/07/08 11:11:19;;;;;;;3.55;3.25;;;;;;;44.15;16.45;101182.88;4961771;28;20101;-80
2023/07/08 11:13:55;;;;;;;3.58;2.90;;;;;;;45.28;15.90;101182.84;4966406;28;20053;-79
2023/07/08 11:16:31;;;;;;;3.60;3.30;;;;;;;44.91;15.96;101175.41;4944282;28;20780;-80
2023/07/08 11:19:07;;;;;;;6.53;3.25;;;;;;;44.94;15.70;101177.69;4953065;28;20044;-80
2023/07/08 11:21:44;;;;;;;4.47;2.85;;;;;;;45.19;14.81;101174.03;4969473;28;20035;-81
2023/07/08 11:24:41;;;;;;;3.60;3.30;;;;;;;44.56;15.34;101174.03;4953280;28;20478;-83
2023/07/08 11:27:27;;;;;;;5.50;3.17;;;;;;;44.88;15.10;101173.94;4969019;28;20474;-79
2023/07/08 11:30:07;;;;;;;3.08;2.88;;;;;;;45.56;15.17;101173.97;4956343;28;20038;-80
2023/07/08 11:32:36;;;;;;;2.97;2.73;;;;;;;45.76;14.53;101168.13;4972730;28;20430;-80
2023/07/08 11:35:07;;;;;;;3.50;3.20;;;;;;;45.55;14.78;101162.06;4956461;28;20035;-80
2023/07/08 11:37:35;;;;;;;3.85;3.03;;;;;;;45.96;14.49;101167.88;4956623;28;20046;-80
2023/07/08 11:40:16;;;;;;;3.33;2.88;;;;;;;45.72;14.12;101156.69;4956454;28;20046;-80
2023/07/08 11:42:48;;;;;;;5.72;3.63;;;;;;;45.25;15.07;101159.28;4956442;28;20038;-80